createdAt,value
2023-03-26T00:01:03.249Z,25.32
2023-03-26T00:05:03.223Z,25.29
2023-03-26T00:09:03.227Z,25.28
2023-03-26T00:13:03.223Z,25.31
2023-03-26T00:17:03.317Z,25.29
2023-03-26T00:21:03.288Z,25.28
2023-03-26T00:25:03.303Z,25.27
2023-03-26T00:29:03.406Z,25.28
2023-03-26T00:33:03.385Z,25.27
2023-03-26T00:37:03.406Z,25.25
2023-03-26T00:41:03.478Z,25.25
2023-03-26T00:45:03.509Z,25.25
2023-03-26T00:49:03.511Z,25.24
2023-03-26T00:53:03.553Z,25.22
2023-03-26T00:57:03.623Z,25.22
2023-03-26T01:01:03.727Z,25.22
2023-03-26T01:05:03.783Z,25.22
2023-03-26T01:09:03.765Z,25.21
2023-03-26T01:13:03.880Z,25.21
2023-03-26T01:17:03.819Z,25.19
2023-03-26T01:21:03.850Z,25.21
2023-03-26T01:25:03.951Z,25.18
2023-03-26T01:29:03.985Z,25.18
2023-03-26T01:33:04.132Z,25.17
2023-03-26T01:37:04.061Z,25.19
2023-03-26T01:41:04.113Z,25.17
2023-03-26T01:45:04.158Z,25.15
2023-03-26T01:49:04.252Z,25.15
2023-03-26T01:53:04.332Z,25.15
2023-03-26T01:57:04.426Z,25.15
2023-03-26T02:01:04.419Z,25.17
2023-03-26T02:05:04.520Z,25.15
2023-03-26T02:09:04.546Z,25.13
2023-03-26T02:13:04.621Z,25.14
2023-03-26T02:17:04.678Z,25.15
2023-03-26T02:21:04.757Z,25.13
2023-03-26T02:25:04.859Z,25.14
2023-03-26T02:29:04.910Z,25.13
2023-03-26T02:33:05.020Z,25.10
2023-03-26T02:37:05.037Z,25.13
2023-03-26T02:41:05.119Z,25.08
2023-03-26T02:45:05.123Z,25.11
2023-03-26T02:49:05.260Z,25.10
2023-03-26T02:53:05.248Z,25.10
2023-03-26T02:57:05.371Z,25.10
2023-03-26T03:01:05.489Z,25.07
2023-03-26T03:05:05.544Z,25.06
2023-03-26T03:09:05.609Z,25.06
2023-03-26T03:13:05.731Z,25.08
2023-03-26T03:17:05.928Z,25.06
2023-03-26T03:21:05.953Z,25.06
2023-03-26T03:25:05.995Z,25.06
2023-03-26T03:29:06.117Z,25.04
2023-03-26T03:33:06.297Z,25.04
2023-03-26T03:37:06.271Z,25.03
2023-03-26T03:41:06.387Z,25.03
2023-03-26T03:45:06.464Z,25.03
2023-03-26T03:49:06.520Z,24.98
2023-03-26T03:53:06.627Z,25.01
2023-03-26T03:57:06.756Z,25.00
2023-03-26T04:01:06.769Z,25.00
2023-03-26T04:05:06.870Z,25.01
2023-03-26T04:09:07.011Z,24.97
2023-03-26T04:13:07.077Z,24.98
2023-03-26T04:17:07.166Z,24.97
2023-03-26T04:21:07.340Z,24.95
2023-03-26T04:25:07.348Z,24.98
2023-03-26T04:29:07.410Z,24.95
2023-03-26T04:33:07.671Z,24.97
2023-03-26T04:37:07.617Z,24.97
2023-03-26T04:41:07.739Z,24.94
2023-03-26T04:45:07.810Z,24.95
2023-03-26T04:49:07.897Z,24.94
2023-03-26T04:53:07.961Z,24.91
2023-03-26T04:57:08.039Z,24.94
2023-03-26T05:01:10.229Z,24.91
2023-03-26T05:05:08.071Z,24.94
2023-03-26T05:09:08.019Z,24.91
2023-03-26T05:13:08.021Z,24.90
2023-03-26T05:17:08.009Z,24.91
2023-03-26T05:21:07.951Z,24.91
2023-03-26T05:25:07.929Z,24.90
2023-03-26T05:29:07.879Z,24.90
2023-03-26T05:33:07.936Z,24.90
2023-03-26T05:37:07.778Z,24.90
2023-03-26T05:41:07.761Z,24.90
2023-03-26T05:45:07.734Z,24.90
2023-03-26T05:49:07.688Z,24.91
2023-03-26T05:53:07.634Z,24.90
2023-03-26T05:57:07.708Z,24.93
2023-03-26T06:01:07.597Z,24.91
2023-03-26T06:05:07.531Z,24.93
2023-03-26T06:09:07.485Z,24.93
2023-03-26T06:13:07.471Z,24.95
2023-03-26T06:17:07.445Z,24.95
2023-03-26T06:21:07.394Z,24.98
2023-03-26T06:25:07.387Z,25.00
2023-03-26T06:29:07.443Z,25.04
2023-03-26T06:33:07.556Z,25.06
2023-03-26T06:37:07.625Z,25.06
2023-03-26T06:41:07.689Z,25.11
2023-03-26T06:45:07.819Z,25.19
2023-03-26T06:49:07.853Z,25.22
2023-03-26T06:53:07.894Z,25.25
2023-03-26T06:57:08.019Z,25.27
2023-03-26T07:01:07.985Z,25.29
2023-03-26T07:05:07.981Z,25.29
2023-03-26T07:09:08.001Z,25.32
2023-03-26T07:13:07.997Z,25.37
2023-03-26T07:17:08.010Z,25.51
2023-03-26T07:21:08.237Z,25.64
2023-03-26T07:25:08.470Z,25.78
2023-03-26T07:29:08.617Z,25.86
2023-03-26T07:33:08.726Z,25.88
2023-03-26T07:37:08.859Z,25.89
2023-03-26T07:41:09.013Z,25.92
2023-03-26T07:45:09.006Z,25.89
2023-03-26T07:49:09.092Z,25.92
2023-03-26T07:53:09.188Z,25.99
2023-03-26T07:57:09.324Z,26.04
2023-03-26T08:01:09.249Z,26.15
2023-03-26T08:05:09.400Z,26.20
2023-03-26T08:09:09.405Z,26.27
2023-03-26T08:13:09.364Z,26.30
2023-03-26T08:17:09.375Z,26.30
2023-03-26T08:21:09.490Z,26.27
2023-03-26T08:25:09.608Z,26.27
2023-03-26T08:29:09.718Z,26.24
2023-03-26T08:33:09.703Z,26.23
2023-03-26T08:37:09.742Z,26.29
2023-03-26T08:41:09.814Z,26.36
2023-03-26T08:45:09.930Z,26.40
2023-03-26T08:49:09.873Z,26.44
2023-03-26T08:53:09.828Z,26.46
2023-03-26T08:57:09.821Z,26.44
2023-03-26T09:01:09.753Z,26.50
2023-03-26T09:05:09.770Z,26.54
2023-03-26T09:09:09.670Z,26.50
2023-03-26T09:13:10.726Z,26.50
2023-03-26T09:17:09.636Z,26.47
2023-03-26T09:21:09.593Z,26.47
2023-03-26T09:25:09.543Z,26.44
2023-03-26T09:29:09.523Z,26.44
2023-03-26T09:33:09.503Z,26.40
2023-03-26T09:37:09.490Z,26.40
2023-03-26T09:41:09.382Z,26.40
2023-03-26T09:45:09.380Z,26.41
2023-03-26T09:49:09.346Z,26.44
2023-03-26T09:53:09.302Z,26.46
2023-03-26T09:57:09.286Z,26.52
2023-03-26T10:01:09.334Z,26.54
2023-03-26T10:05:09.209Z,26.57
2023-03-26T10:09:09.383Z,26.58
2023-03-26T10:13:14.829Z,26.61
2023-03-26T10:17:10.309Z,26.61
2023-03-26T10:21:09.301Z,26.64
2023-03-26T10:25:09.234Z,26.64
2023-03-26T10:29:09.192Z,26.62
2023-03-26T10:33:09.225Z,26.61
2023-03-26T10:37:09.121Z,26.61
2023-03-26T10:41:09.110Z,26.55
2023-03-26T10:45:09.117Z,26.55
2023-03-26T10:49:09.032Z,26.55
2023-03-26T10:53:08.993Z,26.54
2023-03-26T10:57:09.023Z,26.57
2023-03-26T11:01:09.008Z,26.54
2023-03-26T11:05:08.924Z,26.57
2023-03-26T11:09:08.866Z,26.57
2023-03-26T11:13:08.856Z,26.61
2023-03-26T11:17:08.808Z,26.62
2023-03-26T11:21:19.282Z,26.67
2023-03-26T11:25:09.717Z,26.73
2023-03-26T11:29:32.854Z,26.75
2023-03-26T11:33:09.643Z,26.78
2023-03-26T11:37:08.653Z,26.82
2023-03-26T11:41:08.740Z,26.85
2023-03-26T11:45:08.901Z,26.87
2023-03-26T11:49:09.057Z,26.91
2023-03-26T11:53:09.265Z,26.91
2023-03-26T11:57:09.421Z,26.92
2023-03-26T12:01:09.530Z,26.91
2023-03-26T12:05:09.657Z,26.88
2023-03-26T12:09:09.832Z,26.82
2023-03-26T12:13:09.977Z,26.81
2023-03-26T12:17:10.096Z,26.75
2023-03-26T12:21:10.378Z,26.75
2023-03-26T12:25:10.567Z,26.68
2023-03-26T12:29:10.808Z,26.68
2023-03-26T12:33:10.743Z,26.68
2023-03-26T12:37:10.703Z,26.61
2023-03-26T12:42:25.901Z,26.58
2023-03-26T12:45:11.589Z,26.55
2023-03-26T12:49:10.709Z,26.52
2023-03-26T12:53:10.605Z,26.50
2023-03-26T12:57:11.755Z,26.50
2023-03-26T13:01:10.507Z,26.47
2023-03-26T13:05:10.469Z,26.46
2023-03-26T13:09:10.391Z,26.44
2023-03-26T13:13:10.366Z,26.41
2023-03-26T13:17:10.388Z,26.40
2023-03-26T13:21:10.278Z,26.37
2023-03-26T13:25:10.248Z,26.36
2023-03-26T13:29:10.240Z,26.34
2023-03-26T13:33:10.260Z,26.33
2023-03-26T13:37:10.204Z,26.30
2023-03-26T13:41:10.158Z,26.29
2023-03-26T13:45:10.062Z,26.27
2023-03-26T13:49:10.057Z,26.24
2023-03-26T13:53:10.002Z,26.27
2023-03-26T13:57:09.990Z,26.24
2023-03-26T14:01:10.141Z,26.23
2023-03-26T14:05:09.913Z,26.23
2023-03-26T14:09:09.852Z,26.21
2023-03-26T14:13:09.854Z,26.20
2023-03-26T14:17:09.803Z,26.19
2023-03-26T14:21:09.722Z,26.17
2023-03-26T14:25:09.712Z,26.16
2023-03-26T14:29:09.664Z,26.17
2023-03-26T14:33:09.668Z,26.15
2023-03-26T14:37:09.808Z,26.15
2023-03-26T14:41:09.809Z,26.15
2023-03-26T14:45:09.931Z,26.12
2023-03-26T14:49:09.957Z,26.12
2023-03-26T14:53:10.074Z,26.09
2023-03-26T14:57:10.192Z,26.09
2023-03-26T15:01:10.334Z,26.06
2023-03-26T15:05:10.432Z,26.04
2023-03-26T15:09:10.516Z,26.06
2023-03-26T15:13:10.631Z,26.03
2023-03-26T15:17:10.781Z,26.00
2023-03-26T15:21:10.826Z,26.01
2023-03-26T15:25:10.911Z,26.00
2023-03-26T15:29:11.012Z,25.97
2023-03-26T15:33:11.170Z,25.95
2023-03-26T15:37:11.294Z,25.95
2023-03-26T15:41:11.474Z,25.93
2023-03-26T15:45:11.530Z,25.89
2023-03-26T15:49:11.712Z,25.89
2023-03-26T15:53:11.793Z,25.88
2023-03-26T15:57:12.099Z,25.89
2023-03-26T16:01:12.114Z,25.88
2023-03-26T16:05:12.316Z,25.88
2023-03-26T16:09:12.463Z,25.83
2023-03-26T16:13:12.683Z,25.86
2023-03-26T16:17:12.900Z,25.85
2023-03-26T16:21:32.200Z,25.80
2023-03-26T16:25:26.910Z,25.79
2023-03-26T16:29:13.998Z,25.79
2023-03-26T16:33:12.936Z,25.76
2023-03-26T16:37:13.213Z,25.76
2023-03-26T16:41:12.977Z,25.76
2023-03-26T16:45:12.905Z,25.72
2023-03-26T16:49:12.810Z,25.73
2023-03-26T16:53:12.978Z,25.70
2023-03-26T16:57:13.228Z,25.70
2023-03-26T17:01:13.230Z,25.66
2023-03-26T17:05:13.529Z,25.68
2023-03-26T17:09:13.478Z,25.66
2023-03-26T17:13:13.405Z,25.66
2023-03-26T17:17:13.327Z,25.64
2023-03-26T17:21:13.363Z,25.61
2023-03-26T17:25:13.256Z,25.59
2023-03-26T17:29:13.242Z,25.59
2023-03-26T17:33:13.223Z,25.59
2023-03-26T17:37:13.146Z,25.55
2023-03-26T17:41:13.663Z,25.53
2023-03-26T17:45:13.079Z,25.55
2023-03-26T17:49:13.237Z,25.53
2023-03-26T17:53:13.365Z,25.49
2023-03-26T17:57:13.512Z,25.55
2023-03-26T18:01:13.662Z,25.51
2023-03-26T18:05:13.855Z,25.48
2023-03-26T18:09:13.807Z,25.49
2023-03-26T18:13:13.843Z,25.48
2023-03-26T18:17:13.947Z,25.46
2023-03-26T18:21:14.087Z,25.46
2023-03-26T18:25:14.225Z,25.46
2023-03-26T18:29:14.255Z,25.46
2023-03-26T18:33:14.363Z,25.42
2023-03-26T18:37:14.299Z,25.42
2023-03-26T18:41:14.318Z,25.39
2023-03-26T18:45:14.338Z,25.39
2023-03-26T18:49:14.334Z,25.38
2023-03-26T18:53:14.381Z,25.37
2023-03-26T18:57:15.870Z,25.39
2023-03-26T19:01:24.050Z,25.37
2023-03-26T19:05:15.317Z,25.34
2023-03-26T19:09:28.642Z,25.34
2023-03-26T19:13:15.250Z,25.31
2023-03-26T19:17:14.144Z,25.29
2023-03-26T19:21:14.214Z,25.32
2023-03-26T19:25:14.124Z,25.31
2023-03-26T19:29:14.058Z,25.31
2023-03-26T19:33:14.227Z,25.31
2023-03-26T19:37:14.120Z,25.29
2023-03-26T19:41:14.298Z,25.28
2023-03-26T19:45:14.244Z,25.27
2023-03-26T19:49:14.326Z,25.28
2023-03-26T19:53:16.891Z,25.25
2023-03-26T19:57:14.296Z,25.25
2023-03-26T20:01:14.248Z,25.25
2023-03-26T20:05:14.191Z,25.22
2023-03-26T20:09:14.417Z,25.22
2023-03-26T20:13:14.138Z,25.22
2023-03-26T20:17:14.142Z,25.21
2023-03-26T20:21:14.054Z,25.21
2023-03-26T20:25:14.013Z,25.22
2023-03-26T20:29:14.006Z,25.18
2023-03-26T20:33:14.049Z,25.19
2023-03-26T20:37:13.893Z,25.18
2023-03-26T20:41:13.912Z,25.17
2023-03-26T20:45:13.846Z,25.15
2023-03-26T20:49:13.835Z,25.15
2023-03-26T20:53:13.905Z,25.14
2023-03-26T20:57:13.780Z,25.18
2023-03-26T21:01:13.688Z,25.15
2023-03-26T21:05:13.617Z,25.13
2023-03-26T21:09:13.617Z,25.14
2023-03-26T21:13:13.590Z,25.13
2023-03-26T21:17:13.565Z,25.13
2023-03-26T21:21:20.842Z,25.11
2023-03-26T21:25:14.476Z,25.11
2023-03-26T21:29:13.459Z,25.08
2023-03-26T21:33:13.395Z,25.10
2023-03-26T21:37:13.317Z,25.10
2023-03-26T21:41:13.308Z,25.10
2023-03-26T21:45:13.281Z,25.08
2023-03-26T21:49:13.402Z,25.07
2023-03-26T21:53:13.486Z,25.08
2023-03-26T21:57:13.537Z,25.04
2023-03-26T22:01:18.268Z,25.07
2023-03-26T22:05:13.585Z,25.06
2023-03-26T22:09:15.079Z,25.07
2023-03-26T22:13:13.504Z,25.06
2023-03-26T22:17:13.477Z,25.01
2023-03-26T22:21:13.475Z,25.04
2023-03-26T22:25:13.373Z,25.03
2023-03-26T22:29:13.349Z,25.03
2023-03-26T22:33:13.352Z,25.03
2023-03-26T22:37:13.305Z,25.00
2023-03-26T22:41:13.271Z,24.98
2023-03-26T22:45:13.211Z,24.98
2023-03-26T22:49:13.212Z,25.00
2023-03-26T22:53:13.156Z,24.98
2023-03-26T22:57:13.113Z,24.97
2023-03-26T23:01:13.082Z,24.98
2023-03-26T23:05:13.000Z,24.97
2023-03-26T23:09:13.032Z,24.95
2023-03-26T23:13:12.970Z,24.98
2023-03-26T23:17:12.934Z,24.97
2023-03-26T23:21:12.966Z,24.94
2023-03-26T23:25:12.831Z,24.95
2023-03-26T23:29:12.959Z,24.93
2023-03-26T23:33:12.837Z,24.94
2023-03-26T23:37:13.013Z,24.93
2023-03-26T23:41:12.961Z,24.93
2023-03-26T23:45:13.082Z,24.93
2023-03-26T23:49:13.157Z,24.91
2023-03-26T23:53:13.238Z,24.90
2023-03-26T23:57:13.324Z,24.88
